createdAt,value
2022-11-24T00:09:35.317Z,17.88
2022-11-24T00:19:37.028Z,21.05
2022-11-24T00:29:39.500Z,21.88
2022-11-24T00:39:41.187Z,23.42
2022-11-24T00:49:44.827Z,23.45
2022-11-24T00:59:47.903Z,24.95
2022-11-24T01:09:52.577Z,25.37
2022-11-24T01:19:54.285Z,25.38
2022-11-24T01:29:55.922Z,26.00
2022-11-24T01:39:57.611Z,27.08
2022-11-24T01:50:01.946Z,27.90
2022-11-24T02:00:11.944Z,27.60
2022-11-24T02:10:17.427Z,28.30
2022-11-24T02:20:19.281Z,30.67
2022-11-24T02:30:21.202Z,34.58
2022-11-24T02:40:27.050Z,33.88
2022-11-24T02:50:28.917Z,37.83
2022-11-24T03:00:30.756Z,40.58
2022-11-24T03:10:37.554Z,39.70
2022-11-24T03:20:39.272Z,44.38
2022-11-24T03:30:41.017Z,44.65
2022-11-24T03:40:42.755Z,42.20
2022-11-24T03:50:53.251Z,39.22
2022-11-24T04:00:56.195Z,39.47
2022-11-24T04:10:57.917Z,41.17
2022-11-24T04:21:01.738Z,41.25
2022-11-24T04:41:05.911Z,45.85
2022-11-24T04:51:07.835Z,45.85
2022-11-24T05:01:09.956Z,48.58
2022-11-24T05:11:11.748Z,48.20
2022-11-24T05:21:13.378Z,46.72
2022-11-24T05:31:15.091Z,45.85
2022-11-24T05:41:16.732Z,43.35
2022-11-24T05:51:31.068Z,43.88
2022-11-24T06:01:37.890Z,39.85
2022-11-24T06:11:40.603Z,39.25
2022-11-24T06:21:42.242Z,37.33
2022-11-24T06:31:43.937Z,37.70
2022-11-24T06:41:46.656Z,35.05
2022-11-24T06:51:50.606Z,35.65
2022-11-24T07:01:52.870Z,32.38
2022-11-24T07:11:55.864Z,31.35
2022-11-24T07:21:59.593Z,32.17
2022-11-24T07:32:05.394Z,32.03
2022-11-24T07:42:08.590Z,29.05
2022-11-24T07:52:11.433Z,29.20
2022-11-24T08:02:13.459Z,30.33
2022-11-24T08:12:17.015Z,29.67
2022-11-24T08:22:18.599Z,29.17
2022-11-24T08:32:22.403Z,33.65
2022-11-24T08:42:25.295Z,33.05
2022-11-24T08:52:26.946Z,31.35
2022-11-24T09:02:28.700Z,31.80
2022-11-24T09:12:34.804Z,30.67
2022-11-24T09:22:38.262Z,30.17
2022-11-24T09:32:41.514Z,30.33
2022-11-24T09:43:17.601Z,28.70
2022-11-24T09:53:26.449Z,27.70
2022-11-24T10:03:39.939Z,27.83
2022-11-24T10:13:56.784Z,26.30
2022-11-24T10:24:30.248Z,28.27
2022-11-24T10:34:44.871Z,27.63
2022-11-24T10:44:46.881Z,26.75
2022-11-24T10:55:00.224Z,26.70
2022-11-24T11:05:31.720Z,26.93
2022-11-24T11:15:37.706Z,22.52
2022-11-24T11:25:43.987Z,23.02
2022-11-24T11:35:46.148Z,21.90
2022-11-24T11:46:13.384Z,22.48
2022-11-24T11:56:27.187Z,21.77
2022-11-24T12:06:31.737Z,20.55
2022-11-24T12:16:54.980Z,18.17
2022-11-24T12:27:25.317Z,17.53
2022-11-24T12:37:39.142Z,15.57
2022-11-24T12:48:04.497Z,14.85
2022-11-24T12:58:22.876Z,16.00
2022-11-24T13:08:29.575Z,14.50
2022-11-24T13:19:22.972Z,14.30
2022-11-24T13:29:25.621Z,13.70
2022-11-24T13:39:50.483Z,14.00
2022-11-24T13:49:55.637Z,15.38
2022-11-24T14:00:04.963Z,15.23
2022-11-24T14:10:39.122Z,14.23
2022-11-24T14:20:41.103Z,15.63
2022-11-24T14:31:07.579Z,15.52
2022-11-24T14:41:28.468Z,15.70
2022-11-24T14:51:43.509Z,15.45
2022-11-24T15:01:48.939Z,15.85
2022-11-24T15:11:55.513Z,16.73
2022-11-24T15:21:57.097Z,16.33
2022-11-24T15:31:58.809Z,18.67
2022-11-24T15:42:05.025Z,18.20
2022-11-24T15:52:07.298Z,18.92
2022-11-24T16:02:09.791Z,18.17
2022-11-24T16:12:12.629Z,19.77
2022-11-24T16:22:14.250Z,19.93
2022-11-24T16:32:26.574Z,19.67
2022-11-24T16:42:28.842Z,19.52
2022-11-24T16:52:34.060Z,20.90
2022-11-24T17:02:36.399Z,21.65
2022-11-24T17:12:38.587Z,20.55
2022-11-24T17:22:40.574Z,19.30
2022-11-24T17:32:42.297Z,20.33
2022-11-24T17:42:45.979Z,19.90
2022-11-24T17:52:48.188Z,18.33
2022-11-24T18:02:50.168Z,19.38
2022-11-24T18:12:52.055Z,19.00
2022-11-24T18:23:09.047Z,19.73
2022-11-24T18:33:12.095Z,21.05
2022-11-24T18:43:16.986Z,20.33
2022-11-24T18:53:25.555Z,20.85
2022-11-24T19:03:27.328Z,20.73
2022-11-24T19:13:33.494Z,21.70
2022-11-24T19:23:35.866Z,21.20
2022-11-24T19:33:38.406Z,24.67
2022-11-24T19:43:42.326Z,24.00
2022-11-24T20:04:02.425Z,23.90
2022-11-24T20:14:06.809Z,24.33
2022-11-24T20:24:16.712Z,23.98
2022-11-24T20:34:20.769Z,23.88
2022-11-24T20:44:26.886Z,22.85
2022-11-24T20:54:30.755Z,22.95
2022-11-24T21:14:42.060Z,24.20
2022-11-24T21:24:43.743Z,24.50
2022-11-24T21:34:46.119Z,23.23
2022-11-24T21:44:50.657Z,24.17
2022-11-24T21:54:52.535Z,25.52
2022-11-24T22:04:56.471Z,26.75
2022-11-24T22:25:03.157Z,28.33
2022-11-24T22:35:06.402Z,26.13
2022-11-24T22:45:09.713Z,27.00
2022-11-24T22:55:12.350Z,27.03
2022-11-24T23:05:20.694Z,24.35
2022-11-24T23:15:22.614Z,22.98
2022-11-24T23:25:26.405Z,25.52
2022-11-24T23:35:28.106Z,24.38
2022-11-24T23:45:29.815Z,21.48
2022-11-24T23:55:31.463Z,24.13
